sensor_id;sensor_type;location;lat;lon;timestamp;P1;durP1;ratioP1;P2;durP2;ratioP2
12519;SDS011;6325;49.540;8.364;2023-03-01T00:01:33;6.07;;;5.57;;
12519;SDS011;6325;49.540;8.364;2023-03-01T00:04:02;6.10;;;5.60;;
12519;SDS011;6325;49.540;8.364;2023-03-01T00:06:29;6.45;;;5.85;;
12519;SDS011;6325;49.540;8.364;2023-03-01T00:08:55;6.55;;;5.95;;
12519;SDS011;6325;49.540;8.364;2023-03-01T00:11:24;6.68;;;5.97;;
12519;SDS011;6325;49.540;8.364;2023-03-01T00:13:53;6.45;;;5.85;;
12519;SDS011;6325;49.540;8.364;2023-03-01T00:16:22;6.65;;;5.95;;
12519;SDS011;6325;49.540;8.364;2023-03-01T00:18:51;6.30;;;5.80;;
12519;SDS011;6325;49.540;8.364;2023-03-01T00:21:21;6.45;;;5.85;;
12519;SDS011;6325;49.540;8.364;2023-03-01T00:23:49;6.53;;;5.93;;
12519;SDS011;6325;49.540;8.364;2023-03-01T00:26:17;6.68;;;6.07;;
12519;SDS011;6325;49.540;8.364;2023-03-01T00:28:45;7.13;;;6.43;;
12519;SDS011;6325;49.540;8.364;2023-03-01T00:31:13;6.78;;;6.18;;
12519;SDS011;6325;49.540;8.364;2023-03-01T00:33:41;6.60;;;6.00;;
12519;SDS011;6325;49.540;8.364;2023-03-01T00:36:09;6.63;;;6.03;;
12519;SDS011;6325;49.540;8.364;2023-03-01T00:38:39;6.53;;;6.00;;
12519;SDS011;6325;49.540;8.364;2023-03-01T00:43:38;6.70;;;6.10;;
12519;SDS011;6325;49.540;8.364;2023-03-01T00:46:07;6.40;;;5.80;;
12519;SDS011;6325;49.540;8.364;2023-03-01T00:48:35;6.03;;;5.53;;
12519;SDS011;6325;49.540;8.364;2023-03-01T00:51:06;6.45;;;5.85;;
12519;SDS011;6325;49.540;8.364;2023-03-01T00:53:34;6.97;;;6.38;;
12519;SDS011;6325;49.540;8.364;2023-03-01T00:56:03;6.57;;;5.95;;
12519;SDS011;6325;49.540;8.364;2023-03-01T00:58:31;6.63;;;6.03;;
12519;SDS011;6325;49.540;8.364;2023-03-01T01:00:58;7.22;;;6.63;;
12519;SDS011;6325;49.540;8.364;2023-03-01T01:03:26;6.90;;;6.20;;
12519;SDS011;6325;49.540;8.364;2023-03-01T01:05:53;7.30;;;6.60;;
12519;SDS011;6325;49.540;8.364;2023-03-01T01:08:20;6.68;;;6.07;;
12519;SDS011;6325;49.540;8.364;2023-03-01T01:10:47;6.40;;;5.90;;
12519;SDS011;6325;49.540;8.364;2023-03-01T01:13:15;6.47;;;5.88;;
12519;SDS011;6325;49.540;8.364;2023-03-01T01:15:42;6.70;;;6.10;;
12519;SDS011;6325;49.540;8.364;2023-03-01T01:18:09;6.55;;;5.93;;
12519;SDS011;6325;49.540;8.364;2023-03-01T01:20:38;6.57;;;5.93;;
12519;SDS011;6325;49.540;8.364;2023-03-01T01:23:05;7.22;;;6.53;;
12519;SDS011;6325;49.540;8.364;2023-03-01T01:25:34;6.85;;;6.25;;
12519;SDS011;6325;49.540;8.364;2023-03-01T01:28:02;6.43;;;5.88;;
12519;SDS011;6325;49.540;8.364;2023-03-01T01:30:30;6.90;;;6.30;;
12519;SDS011;6325;49.540;8.364;2023-03-01T01:32:58;6.90;;;6.28;;
12519;SDS011;6325;49.540;8.364;2023-03-01T01:35:25;7.32;;;6.65;;
12519;SDS011;6325;49.540;8.364;2023-03-01T01:37:53;7.25;;;6.60;;
12519;SDS011;6325;49.540;8.364;2023-03-01T01:40:20;7.00;;;6.40;;
12519;SDS011;6325;49.540;8.364;2023-03-01T01:42:47;7.63;;;6.93;;
12519;SDS011;6325;49.540;8.364;2023-03-01T01:45:32;7.60;;;6.90;;
12519;SDS011;6325;49.540;8.364;2023-03-01T01:48:02;7.38;;;6.68;;
12519;SDS011;6325;49.540;8.364;2023-03-01T01:50:32;7.82;;;7.03;;
12519;SDS011;6325;49.540;8.364;2023-03-01T01:53:05;7.57;;;6.88;;
12519;SDS011;6325;49.540;8.364;2023-03-01T01:55:34;7.90;;;7.10;;
12519;SDS011;6325;49.540;8.364;2023-03-01T01:58:06;7.97;;;7.17;;
12519;SDS011;6325;49.540;8.364;2023-03-01T02:00:37;7.90;;;7.10;;
12519;SDS011;6325;49.540;8.364;2023-03-01T02:03:06;7.15;;;6.53;;
12519;SDS011;6325;49.540;8.364;2023-03-01T02:05:37;6.93;;;6.32;;
12519;SDS011;6325;49.540;8.364;2023-03-01T02:08:09;7.68;;;6.88;;
12519;SDS011;6325;49.540;8.364;2023-03-01T02:10:38;7.97;;;6.60;;
12519;SDS011;6325;49.540;8.364;2023-03-01T02:13:06;7.45;;;6.78;;
12519;SDS011;6325;49.540;8.364;2023-03-01T02:15:34;7.68;;;6.93;;
12519;SDS011;6325;49.540;8.364;2023-03-01T02:18:04;7.28;;;6.65;;
12519;SDS011;6325;49.540;8.364;2023-03-01T02:20:33;7.23;;;6.63;;
12519;SDS011;6325;49.540;8.364;2023-03-01T02:23:06;7.35;;;6.75;;
12519;SDS011;6325;49.540;8.364;2023-03-01T02:25:37;7.88;;;7.07;;
12519;SDS011;6325;49.540;8.364;2023-03-01T02:28:18;7.25;;;6.55;;
12519;SDS011;6325;49.540;8.364;2023-03-01T02:30:47;7.65;;;6.90;;
12519;SDS011;6325;49.540;8.364;2023-03-01T02:33:34;7.43;;;6.72;;
12519;SDS011;6325;49.540;8.364;2023-03-01T02:36:04;7.65;;;6.95;;
12519;SDS011;6325;49.540;8.364;2023-03-01T02:38:34;7.45;;;6.85;;
12519;SDS011;6325;49.540;8.364;2023-03-01T02:41:01;8.20;;;7.30;;
12519;SDS011;6325;49.540;8.364;2023-03-01T02:43:32;8.48;;;7.78;;
12519;SDS011;6325;49.540;8.364;2023-03-01T02:46:04;8.70;;;7.90;;
12519;SDS011;6325;49.540;8.364;2023-03-01T02:48:39;7.93;;;7.22;;
12519;SDS011;6325;49.540;8.364;2023-03-01T02:51:18;8.85;;;7.95;;
12519;SDS011;6325;49.540;8.364;2023-03-01T02:53:58;8.13;;;7.32;;
12519;SDS011;6325;49.540;8.364;2023-03-01T02:56:34;8.73;;;7.82;;
12519;SDS011;6325;49.540;8.364;2023-03-01T02:59:03;8.68;;;7.85;;
12519;SDS011;6325;49.540;8.364;2023-03-01T03:01:30;8.35;;;7.55;;
12519;SDS011;6325;49.540;8.364;2023-03-01T03:04:03;8.82;;;7.93;;
12519;SDS011;6325;49.540;8.364;2023-03-01T03:06:30;9.00;;;8.10;;
12519;SDS011;6325;49.540;8.364;2023-03-01T03:08:57;8.43;;;7.63;;
12519;SDS011;6325;49.540;8.364;2023-03-01T03:11:24;8.90;;;8.00;;
12519;SDS011;6325;49.540;8.364;2023-03-01T03:13:51;8.80;;;7.90;;
12519;SDS011;6325;49.540;8.364;2023-03-01T03:16:20;8.60;;;7.80;;
12519;SDS011;6325;49.540;8.364;2023-03-01T03:18:48;9.10;;;8.20;;
12519;SDS011;6325;49.540;8.364;2023-03-01T03:21:15;9.05;;;8.15;;
12519;SDS011;6325;49.540;8.364;2023-03-01T03:23:43;8.95;;;8.05;;
12519;SDS011;6325;49.540;8.364;2023-03-01T03:26:10;8.93;;;8.02;;
12519;SDS011;6325;49.540;8.364;2023-03-01T03:28:40;8.33;;;7.53;;
12519;SDS011;6325;49.540;8.364;2023-03-01T03:31:07;8.60;;;7.80;;
12519;SDS011;6325;49.540;8.364;2023-03-01T03:33:35;9.55;;;8.55;;
12519;SDS011;6325;49.540;8.364;2023-03-01T03:36:03;9.10;;;8.25;;
12519;SDS011;6325;49.540;8.364;2023-03-01T03:38:30;8.05;;;7.25;;
12519;SDS011;6325;49.540;8.364;2023-03-01T03:41:01;8.57;;;7.78;;
12519;SDS011;6325;49.540;8.364;2023-03-01T03:43:30;8.30;;;7.50;;
12519;SDS011;6325;49.540;8.364;2023-03-01T03:45:59;8.90;;;8.00;;
12519;SDS011;6325;49.540;8.364;2023-03-01T03:48:26;9.10;;;8.20;;
12519;SDS011;6325;49.540;8.364;2023-03-01T03:50:55;8.40;;;7.60;;
12519;SDS011;6325;49.540;8.364;2023-03-01T03:53:23;8.05;;;7.25;;
12519;SDS011;6325;49.540;8.364;2023-03-01T03:55:51;8.73;;;7.93;;
12519;SDS011;6325;49.540;8.364;2023-03-01T03:58:19;8.37;;;7.60;;
12519;SDS011;6325;49.540;8.364;2023-03-01T04:00:48;8.57;;;7.78;;
12519;SDS011;6325;49.540;8.364;2023-03-01T04:03:17;9.73;;;8.82;;
12519;SDS011;6325;49.540;8.364;2023-03-01T04:05:45;8.48;;;7.70;;
12519;SDS011;6325;49.540;8.364;2023-03-01T04:08:16;9.00;;;8.10;;
12519;SDS011;6325;49.540;8.364;2023-03-01T04:10:45;8.80;;;7.82;;
12519;SDS011;6325;49.540;8.364;2023-03-01T04:13:14;9.40;;;8.38;;
12519;SDS011;6325;49.540;8.364;2023-03-01T04:15:44;8.65;;;7.82;;
12519;SDS011;6325;49.540;8.364;2023-03-01T04:18:11;8.43;;;7.55;;
12519;SDS011;6325;49.540;8.364;2023-03-01T04:20:40;9.07;;;8.18;;
12519;SDS011;6325;49.540;8.364;2023-03-01T04:23:09;9.88;;;8.35;;
12519;SDS011;6325;49.540;8.364;2023-03-01T04:25:40;9.00;;;8.07;;
12519;SDS011;6325;49.540;8.364;2023-03-01T04:28:11;9.38;;;8.40;;
12519;SDS011;6325;49.540;8.364;2023-03-01T04:30:38;9.00;;;8.10;;
12519;SDS011;6325;49.540;8.364;2023-03-01T04:33:07;9.05;;;8.13;;
12519;SDS011;6325;49.540;8.364;2023-03-01T04:35:35;9.63;;;8.63;;
12519;SDS011;6325;49.540;8.364;2023-03-01T04:38:03;9.13;;;8.23;;
12519;SDS011;6325;49.540;8.364;2023-03-01T04:40:30;9.63;;;8.50;;
12519;SDS011;6325;49.540;8.364;2023-03-01T04:42:59;9.13;;;8.30;;
12519;SDS011;6325;49.540;8.364;2023-03-01T04:45:26;9.23;;;8.33;;
12519;SDS011;6325;49.540;8.364;2023-03-01T04:47:53;8.65;;;7.80;;
12519;SDS011;6325;49.540;8.364;2023-03-01T04:50:23;9.20;;;8.30;;
12519;SDS011;6325;49.540;8.364;2023-03-01T04:52:50;8.68;;;7.82;;
12519;SDS011;6325;49.540;8.364;2023-03-01T04:55:18;9.20;;;8.20;;
12519;SDS011;6325;49.540;8.364;2023-03-01T04:57:45;9.00;;;8.10;;
12519;SDS011;6325;49.540;8.364;2023-03-01T05:00:15;9.20;;;8.30;;
12519;SDS011;6325;49.540;8.364;2023-03-01T05:02:49;9.10;;;8.20;;
12519;SDS011;6325;49.540;8.364;2023-03-01T05:05:23;8.98;;;8.07;;
12519;SDS011;6325;49.540;8.364;2023-03-01T05:07:52;8.90;;;8.07;;
12519;SDS011;6325;49.540;8.364;2023-03-01T05:10:20;8.90;;;8.10;;
12519;SDS011;6325;49.540;8.364;2023-03-01T05:12:47;9.10;;;8.23;;
12519;SDS011;6325;49.540;8.364;2023-03-01T05:15:15;8.70;;;7.90;;
12519;SDS011;6325;49.540;8.364;2023-03-01T05:17:42;8.65;;;7.78;;
12519;SDS011;6325;49.540;8.364;2023-03-01T05:20:10;9.20;;;8.30;;
12519;SDS011;6325;49.540;8.364;2023-03-01T05:22:37;9.25;;;8.38;;
12519;SDS011;6325;49.540;8.364;2023-03-01T05:25:04;9.43;;;8.45;;
12519;SDS011;6325;49.540;8.364;2023-03-01T05:27:33;9.18;;;8.27;;
12519;SDS011;6325;49.540;8.364;2023-03-01T05:30:00;9.18;;;8.27;;
12519;SDS011;6325;49.540;8.364;2023-03-01T05:32:40;8.57;;;7.75;;
12519;SDS011;6325;49.540;8.364;2023-03-01T05:35:09;9.17;;;8.27;;
12519;SDS011;6325;49.540;8.364;2023-03-01T05:37:38;9.43;;;8.50;;
12519;SDS011;6325;49.540;8.364;2023-03-01T05:40:07;8.55;;;7.75;;
12519;SDS011;6325;49.540;8.364;2023-03-01T05:42:40;8.20;;;7.40;;
12519;SDS011;6325;49.540;8.364;2023-03-01T05:45:09;9.18;;;8.07;;
12519;SDS011;6325;49.540;8.364;2023-03-01T05:47:37;8.98;;;8.18;;
12519;SDS011;6325;49.540;8.364;2023-03-01T05:50:09;8.90;;;8.00;;
12519;SDS011;6325;49.540;8.364;2023-03-01T05:52:43;8.70;;;7.90;;
12519;SDS011;6325;49.540;8.364;2023-03-01T05:55:11;9.57;;;8.68;;
12519;SDS011;6325;49.540;8.364;2023-03-01T05:57:38;9.03;;;8.13;;
12519;SDS011;6325;49.540;8.364;2023-03-01T06:00:05;9.48;;;8.52;;
12519;SDS011;6325;49.540;8.364;2023-03-01T06:02:33;9.05;;;8.20;;
12519;SDS011;6325;49.540;8.364;2023-03-01T06:05:01;8.48;;;7.68;;
12519;SDS011;6325;49.540;8.364;2023-03-01T06:07:34;8.68;;;7.80;;
12519;SDS011;6325;49.540;8.364;2023-03-01T06:10:02;9.25;;;8.35;;
12519;SDS011;6325;49.540;8.364;2023-03-01T06:12:30;9.10;;;8.20;;
12519;SDS011;6325;49.540;8.364;2023-03-01T06:14:57;9.45;;;8.55;;
12519;SDS011;6325;49.540;8.364;2023-03-01T06:17:25;9.73;;;8.60;;
12519;SDS011;6325;49.540;8.364;2023-03-01T06:19:52;9.40;;;8.50;;
12519;SDS011;6325;49.540;8.364;2023-03-01T06:22:20;9.50;;;8.60;;
12519;SDS011;6325;49.540;8.364;2023-03-01T06:24:47;9.40;;;8.40;;
12519;SDS011;6325;49.540;8.364;2023-03-01T06:27:14;9.57;;;8.55;;
12519;SDS011;6325;49.540;8.364;2023-03-01T06:29:42;9.73;;;8.73;;
12519;SDS011;6325;49.540;8.364;2023-03-01T06:32:09;9.37;;;8.47;;
12519;SDS011;6325;49.540;8.364;2023-03-01T06:34:36;9.55;;;8.57;;
12519;SDS011;6325;49.540;8.364;2023-03-01T06:37:03;11.38;;;8.60;;
12519;SDS011;6325;49.540;8.364;2023-03-01T06:39:32;9.30;;;8.35;;
12519;SDS011;6325;49.540;8.364;2023-03-01T06:41:59;9.23;;;8.32;;
12519;SDS011;6325;49.540;8.364;2023-03-01T06:44:26;13.77;;;9.80;;
12519;SDS011;6325;49.540;8.364;2023-03-01T06:46:53;9.00;;;8.10;;
12519;SDS011;6325;49.540;8.364;2023-03-01T06:49:20;9.68;;;8.45;;
12519;SDS011;6325;49.540;8.364;2023-03-01T06:51:47;10.48;;;9.48;;
12519;SDS011;6325;49.540;8.364;2023-03-01T06:54:14;10.30;;;9.30;;
12519;SDS011;6325;49.540;8.364;2023-03-01T06:56:44;10.15;;;9.00;;
12519;SDS011;6325;49.540;8.364;2023-03-01T06:59:13;10.07;;;8.95;;
12519;SDS011;6325;49.540;8.364;2023-03-01T07:01:39;12.60;;;9.43;;
12519;SDS011;6325;49.540;8.364;2023-03-01T07:04:07;11.35;;;9.10;;
12519;SDS011;6325;49.540;8.364;2023-03-01T07:06:35;10.20;;;9.02;;
12519;SDS011;6325;49.540;8.364;2023-03-01T07:09:02;10.20;;;9.10;;
12519;SDS011;6325;49.540;8.364;2023-03-01T07:11:31;10.15;;;9.15;;
12519;SDS011;6325;49.540;8.364;2023-03-01T07:13:59;9.77;;;8.77;;
12519;SDS011;6325;49.540;8.364;2023-03-01T07:16:26;10.25;;;9.25;;
12519;SDS011;6325;49.540;8.364;2023-03-01T07:18:53;9.90;;;8.90;;
12519;SDS011;6325;49.540;8.364;2023-03-01T07:21:21;10.40;;;9.35;;
12519;SDS011;6325;49.540;8.364;2023-03-01T07:23:48;9.90;;;8.90;;
12519;SDS011;6325;49.540;8.364;2023-03-01T07:26:15;10.40;;;9.30;;
12519;SDS011;6325;49.540;8.364;2023-03-01T07:28:42;10.37;;;9.17;;
12519;SDS011;6325;49.540;8.364;2023-03-01T07:31:10;9.77;;;8.77;;
12519;SDS011;6325;49.540;8.364;2023-03-01T07:33:37;9.65;;;8.75;;
12519;SDS011;6325;49.540;8.364;2023-03-01T07:36:05;10.37;;;9.37;;
12519;SDS011;6325;49.540;8.364;2023-03-01T07:38:32;10.45;;;9.38;;
12519;SDS011;6325;49.540;8.364;2023-03-01T07:40:59;10.75;;;9.50;;
12519;SDS011;6325;49.540;8.364;2023-03-01T07:43:29;10.30;;;9.30;;
12519;SDS011;6325;49.540;8.364;2023-03-01T07:45:58;9.57;;;8.67;;
12519;SDS011;6325;49.540;8.364;2023-03-01T07:48:27;10.35;;;9.25;;
12519;SDS011;6325;49.540;8.364;2023-03-01T07:50:56;9.70;;;8.80;;
12519;SDS011;6325;49.540;8.364;2023-03-01T07:53:24;9.80;;;8.80;;
12519;SDS011;6325;49.540;8.364;2023-03-01T07:55:59;9.82;;;8.82;;
12519;SDS011;6325;49.540;8.364;2023-03-01T07:58:26;10.32;;;9.32;;
12519;SDS011;6325;49.540;8.364;2023-03-01T08:00:54;9.93;;;8.93;;
12519;SDS011;6325;49.540;8.364;2023-03-01T08:03:21;9.82;;;8.93;;
12519;SDS011;6325;49.540;8.364;2023-03-01T08:05:49;10.38;;;9.27;;
12519;SDS011;6325;49.540;8.364;2023-03-01T08:08:16;9.98;;;8.98;;
12519;SDS011;6325;49.540;8.364;2023-03-01T08:10:43;11.10;;;9.90;;
12519;SDS011;6325;49.540;8.364;2023-03-01T08:13:10;10.48;;;9.38;;
12519;SDS011;6325;49.540;8.364;2023-03-01T08:15:37;10.15;;;9.15;;
12519;SDS011;6325;49.540;8.364;2023-03-01T08:18:04;10.45;;;9.45;;
12519;SDS011;6325;49.540;8.364;2023-03-01T08:20:31;10.02;;;9.02;;
12519;SDS011;6325;49.540;8.364;2023-03-01T08:22:59;10.05;;;9.05;;
12519;SDS011;6325;49.540;8.364;2023-03-01T08:25:26;9.70;;;8.75;;
12519;SDS011;6325;49.540;8.364;2023-03-01T08:27:53;10.05;;;9.05;;
12519;SDS011;6325;49.540;8.364;2023-03-01T08:30:20;10.40;;;9.40;;
12519;SDS011;6325;49.540;8.364;2023-03-01T08:32:48;10.02;;;9.02;;
12519;SDS011;6325;49.540;8.364;2023-03-01T08:35:16;10.75;;;9.65;;
12519;SDS011;6325;49.540;8.364;2023-03-01T08:37:43;10.82;;;9.73;;
12519;SDS011;6325;49.540;8.364;2023-03-01T08:40:13;10.50;;;9.50;;
12519;SDS011;6325;49.540;8.364;2023-03-01T08:42:41;10.50;;;9.50;;
12519;SDS011;6325;49.540;8.364;2023-03-01T08:45:09;10.88;;;9.85;;
12519;SDS011;6325;49.540;8.364;2023-03-01T08:47:37;10.67;;;9.57;;
12519;SDS011;6325;49.540;8.364;2023-03-01T08:50:04;10.07;;;9.15;;
12519;SDS011;6325;49.540;8.364;2023-03-01T08:52:32;11.05;;;9.95;;
12519;SDS011;6325;49.540;8.364;2023-03-01T08:54:59;10.37;;;9.30;;
12519;SDS011;6325;49.540;8.364;2023-03-01T08:57:28;10.75;;;9.75;;
12519;SDS011;6325;49.540;8.364;2023-03-01T08:59:56;10.35;;;9.27;;
12519;SDS011;6325;49.540;8.364;2023-03-01T09:02:23;10.27;;;9.38;;
12519;SDS011;6325;49.540;8.364;2023-03-01T09:04:49;10.32;;;9.20;;
12519;SDS011;6325;49.540;8.364;2023-03-01T09:07:16;10.27;;;9.27;;
12519;SDS011;6325;49.540;8.364;2023-03-01T09:09:43;10.68;;;9.68;;
12519;SDS011;6325;49.540;8.364;2023-03-01T09:12:10;10.60;;;9.60;;
12519;SDS011;6325;49.540;8.364;2023-03-01T09:14:39;11.05;;;9.95;;
12519;SDS011;6325;49.540;8.364;2023-03-01T09:17:07;10.25;;;9.35;;
12519;SDS011;6325;49.540;8.364;2023-03-01T09:19:33;10.63;;;9.63;;
12519;SDS011;6325;49.540;8.364;2023-03-01T09:22:00;10.95;;;9.95;;
12519;SDS011;6325;49.540;8.364;2023-03-01T09:24:29;11.10;;;10.00;;
12519;SDS011;6325;49.540;8.364;2023-03-01T09:26:56;10.30;;;9.40;;
12519;SDS011;6325;49.540;8.364;2023-03-01T09:29:24;11.15;;;9.55;;
12519;SDS011;6325;49.540;8.364;2023-03-01T09:31:52;10.50;;;9.50;;
12519;SDS011;6325;49.540;8.364;2023-03-01T09:34:20;10.95;;;9.95;;
12519;SDS011;6325;49.540;8.364;2023-03-01T09:36:48;10.93;;;9.82;;
12519;SDS011;6325;49.540;8.364;2023-03-01T09:39:16;11.25;;;10.15;;
12519;SDS011;6325;49.540;8.364;2023-03-01T09:41:45;11.25;;;10.13;;
12519;SDS011;6325;49.540;8.364;2023-03-01T09:44:25;10.93;;;9.90;;
12519;SDS011;6325;49.540;8.364;2023-03-01T09:46:57;11.13;;;10.02;;
12519;SDS011;6325;49.540;8.364;2023-03-01T09:49:26;11.13;;;10.13;;
12519;SDS011;6325;49.540;8.364;2023-03-01T09:52:03;10.70;;;9.70;;
12519;SDS011;6325;49.540;8.364;2023-03-01T09:54:41;11.10;;;9.93;;
12519;SDS011;6325;49.540;8.364;2023-03-01T09:57:14;11.07;;;9.97;;
12519;SDS011;6325;49.540;8.364;2023-03-01T09:59:55;11.00;;;9.90;;
12519;SDS011;6325;49.540;8.364;2023-03-01T10:02:33;11.43;;;10.32;;
12519;SDS011;6325;49.540;8.364;2023-03-01T10:05:29;10.88;;;9.88;;
12519;SDS011;6325;49.540;8.364;2023-03-01T10:08:06;11.82;;;10.65;;
12519;SDS011;6325;49.540;8.364;2023-03-01T10:10:54;10.88;;;9.80;;
12519;SDS011;6325;49.540;8.364;2023-03-01T10:13:25;11.00;;;9.90;;
12519;SDS011;6325;49.540;8.364;2023-03-01T10:16:00;11.00;;;9.90;;
12519;SDS011;6325;49.540;8.364;2023-03-01T10:18:33;11.13;;;10.02;;
12519;SDS011;6325;49.540;8.364;2023-03-01T10:21:08;10.68;;;9.65;;
12519;SDS011;6325;49.540;8.364;2023-03-01T10:23:39;11.15;;;10.05;;
12519;SDS011;6325;49.540;8.364;2023-03-01T10:26:12;11.77;;;10.57;;
12519;SDS011;6325;49.540;8.364;2023-03-01T10:28:50;11.25;;;10.15;;
12519;SDS011;6325;49.540;8.364;2023-03-01T10:31:29;10.80;;;9.80;;
12519;SDS011;6325;49.540;8.364;2023-03-01T10:34:07;11.07;;;9.98;;
12519;SDS011;6325;49.540;8.364;2023-03-01T10:36:37;11.20;;;10.10;;
12519;SDS011;6325;49.540;8.364;2023-03-01T10:39:11;10.65;;;9.70;;
12519;SDS011;6325;49.540;8.364;2023-03-01T10:41:45;10.43;;;9.43;;
12519;SDS011;6325;49.540;8.364;2023-03-01T10:44:39;10.82;;;9.82;;
12519;SDS011;6325;49.540;8.364;2023-03-01T10:47:13;10.80;;;9.80;;
12519;SDS011;6325;49.540;8.364;2023-03-01T10:49:52;10.93;;;9.88;;
12519;SDS011;6325;49.540;8.364;2023-03-01T10:52:21;11.07;;;10.07;;
12519;SDS011;6325;49.540;8.364;2023-03-01T10:54:52;11.23;;;10.13;;
12519;SDS011;6325;49.540;8.364;2023-03-01T10:57:32;11.00;;;10.00;;
12519;SDS011;6325;49.540;8.364;2023-03-01T11:00:14;11.60;;;10.50;;
12519;SDS011;6325;49.540;8.364;2023-03-01T11:02:48;11.35;;;10.25;;
12519;SDS011;6325;49.540;8.364;2023-03-01T11:05:20;11.57;;;10.48;;
12519;SDS011;6325;49.540;8.364;2023-03-01T11:07:51;10.87;;;9.80;;
12519;SDS011;6325;49.540;8.364;2023-03-01T11:10:19;11.27;;;10.27;;
12519;SDS011;6325;49.540;8.364;2023-03-01T11:12:48;11.40;;;10.38;;
12519;SDS011;6325;49.540;8.364;2023-03-01T11:15:21;10.98;;;9.88;;
12519;SDS011;6325;49.540;8.364;2023-03-01T11:17:50;10.63;;;9.68;;
12519;SDS011;6325;49.540;8.364;2023-03-01T11:20:23;10.65;;;9.65;;
12519;SDS011;6325;49.540;8.364;2023-03-01T11:22:53;11.90;;;10.63;;
12519;SDS011;6325;49.540;8.364;2023-03-01T11:25:23;11.30;;;10.20;;
12519;SDS011;6325;49.540;8.364;2023-03-01T11:27:52;10.18;;;9.27;;
12519;SDS011;6325;49.540;8.364;2023-03-01T11:30:21;10.63;;;9.63;;
12519;SDS011;6325;49.540;8.364;2023-03-01T11:32:54;10.80;;;9.80;;
12519;SDS011;6325;49.540;8.364;2023-03-01T11:35:30;11.18;;;10.05;;
12519;SDS011;6325;49.540;8.364;2023-03-01T11:38:04;10.90;;;9.90;;
12519;SDS011;6325;49.540;8.364;2023-03-01T11:40:42;11.07;;;9.98;;
12519;SDS011;6325;49.540;8.364;2023-03-01T11:43:15;11.43;;;10.32;;
12519;SDS011;6325;49.540;8.364;2023-03-01T11:45:52;11.25;;;10.15;;
12519;SDS011;6325;49.540;8.364;2023-03-01T11:48:34;11.00;;;9.90;;
12519;SDS011;6325;49.540;8.364;2023-03-01T11:51:12;10.30;;;9.40;;
12519;SDS011;6325;49.540;8.364;2023-03-01T11:53:51;10.82;;;9.80;;
12519;SDS011;6325;49.540;8.364;2023-03-01T11:56:35;10.48;;;9.48;;
12519;SDS011;6325;49.540;8.364;2023-03-01T11:59:12;10.98;;;9.98;;
12519;SDS011;6325;49.540;8.364;2023-03-01T12:02:07;11.10;;;10.10;;
12519;SDS011;6325;49.540;8.364;2023-03-01T12:08:01;10.70;;;9.67;;
12519;SDS011;6325;49.540;8.364;2023-03-01T12:10:38;10.75;;;9.77;;
12519;SDS011;6325;49.540;8.364;2023-03-01T12:13:21;10.57;;;9.57;;
12519;SDS011;6325;49.540;8.364;2023-03-01T12:16:06;10.77;;;9.67;;
12519;SDS011;6325;49.540;8.364;2023-03-01T12:18:51;10.40;;;9.40;;
12519;SDS011;6325;49.540;8.364;2023-03-01T12:21:30;10.13;;;9.13;;
12519;SDS011;6325;49.540;8.364;2023-03-01T12:27:03;10.37;;;9.47;;
12519;SDS011;6325;49.540;8.364;2023-03-01T12:29:39;10.40;;;9.37;;
12519;SDS011;6325;49.540;8.364;2023-03-01T12:32:22;9.60;;;8.75;;
12519;SDS011;6325;49.540;8.364;2023-03-01T12:37:54;9.43;;;8.57;;
12519;SDS011;6325;49.540;8.364;2023-03-01T12:43:44;9.50;;;8.70;;
12519;SDS011;6325;49.540;8.364;2023-03-01T12:46:21;9.68;;;8.82;;
12519;SDS011;6325;49.540;8.364;2023-03-01T12:48:59;9.13;;;8.32;;
12519;SDS011;6325;49.540;8.364;2023-03-01T12:51:33;9.10;;;8.30;;
12519;SDS011;6325;49.540;8.364;2023-03-01T12:54:05;8.82;;;8.02;;
12519;SDS011;6325;49.540;8.364;2023-03-01T12:56:41;9.00;;;8.20;;
12519;SDS011;6325;49.540;8.364;2023-03-01T12:59:26;9.20;;;8.40;;
12519;SDS011;6325;49.540;8.364;2023-03-01T13:02:02;10.10;;;9.20;;
12519;SDS011;6325;49.540;8.364;2023-03-01T13:04:38;9.57;;;8.68;;
12519;SDS011;6325;49.540;8.364;2023-03-01T13:07:19;9.60;;;8.70;;
12519;SDS011;6325;49.540;8.364;2023-03-01T13:09:55;9.70;;;8.70;;
12519;SDS011;6325;49.540;8.364;2023-03-01T13:12:43;9.48;;;8.57;;
12519;SDS011;6325;49.540;8.364;2023-03-01T13:15:27;8.80;;;8.00;;
12519;SDS011;6325;49.540;8.364;2023-03-01T13:18:02;9.68;;;8.77;;
12519;SDS011;6325;49.540;8.364;2023-03-01T13:20:32;9.18;;;8.38;;
12519;SDS011;6325;49.540;8.364;2023-03-01T13:23:02;9.60;;;8.70;;
12519;SDS011;6325;49.540;8.364;2023-03-01T13:25:32;9.13;;;8.23;;
12519;SDS011;6325;49.540;8.364;2023-03-01T13:31:05;9.23;;;8.43;;
12519;SDS011;6325;49.540;8.364;2023-03-01T13:33:37;9.23;;;8.38;;
12519;SDS011;6325;49.540;8.364;2023-03-01T13:36:07;9.23;;;8.43;;
12519;SDS011;6325;49.540;8.364;2023-03-01T13:38:47;9.60;;;8.70;;
12519;SDS011;6325;49.540;8.364;2023-03-01T13:44:17;9.23;;;8.33;;
12519;SDS011;6325;49.540;8.364;2023-03-01T13:46:53;9.43;;;8.63;;
12519;SDS011;6325;49.540;8.364;2023-03-01T13:49:23;8.90;;;8.10;;
12519;SDS011;6325;49.540;8.364;2023-03-01T13:51:54;8.60;;;7.90;;
12519;SDS011;6325;49.540;8.364;2023-03-01T13:54:24;9.15;;;8.25;;
12519;SDS011;6325;49.540;8.364;2023-03-01T13:56:55;8.15;;;7.45;;
12519;SDS011;6325;49.540;8.364;2023-03-01T13:59:24;8.10;;;7.40;;
12519;SDS011;6325;49.540;8.364;2023-03-01T14:01:53;8.60;;;7.80;;
12519;SDS011;6325;49.540;8.364;2023-03-01T14:04:22;8.20;;;7.50;;
12519;SDS011;6325;49.540;8.364;2023-03-01T14:06:50;8.18;;;7.47;;
12519;SDS011;6325;49.540;8.364;2023-03-01T14:09:18;8.65;;;7.85;;
12519;SDS011;6325;49.540;8.364;2023-03-01T14:12:02;8.15;;;7.43;;
12519;SDS011;6325;49.540;8.364;2023-03-01T14:14:40;7.80;;;7.10;;
12519;SDS011;6325;49.540;8.364;2023-03-01T14:17:32;7.85;;;7.15;;
12519;SDS011;6325;49.540;8.364;2023-03-01T14:20:11;8.20;;;7.40;;
12519;SDS011;6325;49.540;8.364;2023-03-01T14:22:42;8.10;;;7.40;;
12519;SDS011;6325;49.540;8.364;2023-03-01T14:25:17;7.38;;;6.72;;
12519;SDS011;6325;49.540;8.364;2023-03-01T14:27:51;7.55;;;6.85;;
12519;SDS011;6325;49.540;8.364;2023-03-01T14:30:24;7.18;;;6.57;;
12519;SDS011;6325;49.540;8.364;2023-03-01T14:32:55;6.80;;;6.20;;
12519;SDS011;6325;49.540;8.364;2023-03-01T14:35:24;6.95;;;6.25;;
12519;SDS011;6325;49.540;8.364;2023-03-01T14:37:52;6.80;;;6.20;;
12519;SDS011;6325;49.540;8.364;2023-03-01T14:40:20;6.30;;;5.70;;
12519;SDS011;6325;49.540;8.364;2023-03-01T14:42:49;6.28;;;5.68;;
12519;SDS011;6325;49.540;8.364;2023-03-01T14:45:17;5.90;;;5.40;;
12519;SDS011;6325;49.540;8.364;2023-03-01T14:47:45;6.37;;;5.77;;
12519;SDS011;6325;49.540;8.364;2023-03-01T14:50:17;5.82;;;5.32;;
12519;SDS011;6325;49.540;8.364;2023-03-01T14:52:50;5.88;;;5.38;;
12519;SDS011;6325;49.540;8.364;2023-03-01T14:55:20;5.82;;;5.35;;
12519;SDS011;6325;49.540;8.364;2023-03-01T14:57:51;5.78;;;5.28;;
12519;SDS011;6325;49.540;8.364;2023-03-01T15:00:20;5.85;;;5.35;;
12519;SDS011;6325;49.540;8.364;2023-03-01T15:02:50;6.38;;;5.78;;
12519;SDS011;6325;49.540;8.364;2023-03-01T15:05:22;6.05;;;5.55;;
12519;SDS011;6325;49.540;8.364;2023-03-01T15:07:52;6.10;;;5.60;;
12519;SDS011;6325;49.540;8.364;2023-03-01T15:10:20;5.77;;;5.17;;
12519;SDS011;6325;49.540;8.364;2023-03-01T15:12:49;5.53;;;5.03;;
12519;SDS011;6325;49.540;8.364;2023-03-01T15:15:31;5.70;;;5.20;;
12519;SDS011;6325;49.540;8.364;2023-03-01T15:18:04;5.35;;;4.85;;
12519;SDS011;6325;49.540;8.364;2023-03-01T15:20:41;5.80;;;5.20;;
12519;SDS011;6325;49.540;8.364;2023-03-01T15:23:13;5.30;;;4.90;;
12519;SDS011;6325;49.540;8.364;2023-03-01T15:25:46;5.60;;;5.10;;
12519;SDS011;6325;49.540;8.364;2023-03-01T15:28:22;5.40;;;4.90;;
12519;SDS011;6325;49.540;8.364;2023-03-01T15:30:52;5.47;;;4.97;;
12519;SDS011;6325;49.540;8.364;2023-03-01T15:33:30;5.47;;;4.97;;
12519;SDS011;6325;49.540;8.364;2023-03-01T15:36:04;5.40;;;5.00;;
12519;SDS011;6325;49.540;8.364;2023-03-01T15:38:58;5.15;;;4.68;;